Time;durP1;ratioP1;P1;durP2;ratioP2;P2;SDS_P1;SDS_P2;PMS_P1;PMS_P2;Temp;Humidity;BMP_temperature;BMP_pressure;BME280_temperature;BME280_humidity;BME280_pressure;Samples;Min_cycle;Max_cycle;Signal;HPM_P1;HPM_P2
2022/12/19 00:00:00;;;;;;;24.60;13.80;;;;;;;-1.02;97.12;101878.13;2063802;28;41777;-70
2022/12/19 00:01:17;;;;;;;25.20;14.57;;;;;;;-1.04;97.74;101880.69;2066423;28;20132;-69
2022/12/19 00:02:21;;;;;;;24.67;13.25;;;;;;;-1.00;97.97;101881.69;2072897;28;35820;-70
2022/12/19 00:03:23;;;;;;;25.48;13.95;;;;;;;-0.98;97.68;101882.66;2071641;28;42956;-68
2022/12/19 00:04:25;;;;;;;26.25;13.75;;;;;;;-1.00;98.39;101868.56;2072699;28;35225;-68
2022/12/19 00:05:26;;;;;;;23.13;13.15;;;;;;;-0.99;98.83;101883.47;2072242;28;39123;-69
2022/12/19 00:06:29;;;;;;;25.88;14.35;;;;;;;-0.96;99.51;101878.34;2072084;28;38409;-69
2022/12/19 00:07:30;;;;;;;25.00;14.23;;;;;;;-0.96;99.51;101873.09;2063701;28;28174;-69
2022/12/19 00:08:32;;;;;;;26.90;14.88;;;;;;;-0.96;100.00;101873.09;2063552;28;43078;-70
2022/12/19 00:09:34;;;;;;;24.15;14.10;;;;;;;-0.96;100.00;101873.09;2073574;28;20039;-70
2022/12/19 00:10:36;;;;;;;27.13;14.38;;;;;;;-0.97;100.00;101869.56;2072715;28;36960;-70
2022/12/19 00:11:39;;;;;;;26.85;14.68;;;;;;;-0.96;100.00;101867.84;2072305;28;39625;-70
2022/12/19 00:12:42;;;;;;;25.00;14.50;;;;;;;-0.95;100.00;101861.75;2072401;28;36826;-71
2022/12/19 00:13:44;;;;;;;28.40;15.13;;;;;;;-0.92;100.00;101861.84;2072085;28;40241;-70
2022/12/19 00:14:46;;;;;;;25.00;14.60;;;;;;;-0.93;100.00;101860.06;2072618;28;35812;-71
2022/12/19 00:15:50;;;;;;;25.70;14.10;;;;;;;-0.94;100.00;101857.38;2072327;28;34606;-70
2022/12/19 00:16:52;;;;;;;28.10;15.60;;;;;;;-0.94;100.00;101853.00;2063491;28;40261;-69
2022/12/19 00:17:54;;;;;;;25.23;14.25;;;;;;;-0.94;100.00;101853.00;2056977;28;20920;-69
2022/12/19 00:19:00;;;;;;;25.98;15.15;;;;;;;-0.93;100.00;101859.16;2063875;28;41102;-69
2022/12/19 00:20:02;;;;;;;26.27;15.02;;;;;;;-0.94;100.00;101868.78;2063356;28;43009;-69
2022/12/19 00:21:07;;;;;;;28.98;16.30;;;;;;;-0.93;100.00;101859.16;2064493;28;35847;-69
2022/12/19 00:22:09;;;;;;;24.60;14.10;;;;;;;-0.94;100.00;101855.66;2072192;28;44165;-71
2022/12/19 00:23:11;;;;;;;25.25;14.27;;;;;;;-0.93;100.00;101869.69;2072342;28;37297;-68
2022/12/19 00:24:13;;;;;;;27.35;15.10;;;;;;;-0.93;100.00;101865.34;2071861;28;38310;-68
2022/12/19 00:25:22;;;;;;;27.60;15.27;;;;;;;-0.93;100.00;101860.06;2072420;28;39316;-68
2022/12/19 00:26:27;;;;;;;28.90;15.48;;;;;;;-0.92;100.00;101853.97;2072783;28;20789;-68
2022/12/19 00:27:34;;;;;;;27.08;14.32;;;;;;;-0.92;100.00;101856.59;2063739;28;36374;-69
2022/12/19 00:28:38;;;;;;;29.02;16.05;;;;;;;-0.91;100.00;101854.88;2065189;28;27206;-68
2022/12/19 00:29:40;;;;;;;29.38;15.98;;;;;;;-0.89;100.00;101864.59;2072028;28;38465;-69
2022/12/19 00:30:41;;;;;;;28.48;15.05;;;;;;;-0.90;100.00;101859.28;2072098;28;37119;-69
2022/12/19 00:31:43;;;;;;;29.02;16.05;;;;;;;-0.90;100.00;101857.53;2073277;28;20034;-69
2022/12/19 00:32:48;;;;;;;27.48;14.77;;;;;;;-0.92;100.00;101861.84;2063790;28;20046;-69
2022/12/19 00:33:50;;;;;;;32.72;15.20;;;;;;;-0.89;100.00;101854.09;2055603;28;32374;-69
2022/12/19 00:34:54;;;;;;;28.73;15.98;;;;;;;-0.88;100.00;101860.25;2063722;28;30026;-69
2022/12/19 00:36:06;;;;;;;28.90;15.75;;;;;;;-0.91;100.00;101861.03;2072331;28;34254;-69
2022/12/19 00:37:10;;;;;;;26.42;14.75;;;;;;;-0.89;100.00;101854.09;2064697;28;20112;-69
2022/12/19 00:38:12;;;;;;;29.48;15.63;;;;;;;-0.92;100.00;101846.09;2064207;28;30784;-69
2022/12/19 00:39:16;;;;;;;29.85;15.73;;;;;;;-0.91;100.00;101845.25;2073320;28;20035;-70
2022/12/19 00:40:19;;;;;;;30.58;16.08;;;;;;;-0.92;100.00;101838.19;2064083;28;20047;-69
2022/12/19 00:41:27;;;;;;;28.83;15.68;;;;;;;-0.92;100.00;101832.94;2070295;28;37156;-69
2022/12/19 00:42:29;;;;;;;31.02;17.13;;;;;;;-0.92;100.00;101830.31;2080852;28;20045;-70
2022/12/19 00:43:31;;;;;;;28.55;15.57;;;;;;;-0.89;100.00;101829.56;2080249;28;20038;-69
2022/12/19 00:44:33;;;;;;;26.60;15.65;;;;;;;-0.90;100.00;101828.63;2079704;28;36013;-69
2022/12/19 00:45:37;;;;;;;28.65;15.82;;;;;;;-0.89;100.00;101819.91;2080731;28;33544;-70
2022/12/19 00:46:39;;;;;;;29.38;16.23;;;;;;;-0.86;100.00;101814.78;2071520;28;34819;-69
2022/12/19 00:47:40;;;;;;;27.73;15.95;;;;;;;-0.85;100.00;101816.56;2071851;28;32349;-69
2022/12/19 00:48:42;;;;;;;32.40;17.48;;;;;;;-0.86;100.00;101814.78;2080466;28;20042;-69
2022/12/19 00:49:44;;;;;;;30.70;16.75;;;;;;;-0.87;100.00;101806.84;2080719;28;33834;-70
2022/12/19 00:50:46;;;;;;;31.08;16.38;;;;;;;-0.84;100.00;101806.97;2080663;28;26479;-69
2022/12/19 00:51:48;;;;;;;31.58;16.83;;;;;;;-0.85;100.00;101810.41;2080576;28;33199;-69
2022/12/19 00:52:49;;;;;;;31.73;17.33;;;;;;;-0.86;100.00;101799.00;2080276;28;36920;-70
2022/12/19 00:53:54;;;;;;;29.48;16.33;;;;;;;-0.87;100.00;101807.72;2080587;28;21747;-69
2022/12/19 00:54:56;;;;;;;31.17;17.20;;;;;;;-0.87;100.00;101801.59;2079504;28;39091;-70
2022/12/19 00:56:09;;;;;;;32.40;16.70;;;;;;;-0.85;100.00;101792.00;2081243;28;20128;-69
2022/12/19 00:57:11;;;;;;;33.28;16.90;;;;;;;-0.86;100.00;101803.34;2063263;28;29768;-70
2022/12/19 00:58:14;;;;;;;31.45;16.48;;;;;;;-0.86;100.00;101799.00;2065411;28;20046;-70
2022/12/19 00:59:18;;;;;;;28.15;16.73;;;;;;;-0.86;100.00;101791.13;2080479;28;20876;-69
2022/12/19 01:00:26;;;;;;;29.67;16.95;;;;;;;-0.87;100.00;101789.31;2080748;28;38617;-70
2022/12/19 01:01:34;;;;;;;35.08;17.50;;;;;;;-0.88;100.00;101792.81;2071817;28;20054;-70
2022/12/19 01:02:35;;;;;;;30.38;16.35;;;;;;;-0.90;100.00;101791.81;2072253;28;38579;-69
2022/12/19 01:03:37;;;;;;;30.83;16.83;;;;;;;-0.89;100.00;101792.75;2079771;28;38406;-69
2022/12/19 01:04:39;;;;;;;30.80;16.35;;;;;;;-0.89;100.00;101791.00;2081256;28;20058;-70
2022/12/19 01:05:46;;;;;;;32.13;17.17;;;;;;;-0.89;100.00;101787.50;2081058;28;20884;-71
2022/12/19 01:06:48;;;;;;;31.25;17.20;;;;;;;-0.89;100.00;101783.13;2071874;28;31639;-71
2022/12/19 01:07:50;;;;;;;31.15;17.20;;;;;;;-0.89;100.00;101783.13;2055309;28;33565;-71
2022/12/19 01:08:52;;;;;;;31.13;17.02;;;;;;;-0.90;100.00;101765.53;2063854;28;38726;-71
2022/12/19 01:09:55;;;;;;;31.83;17.42;;;;;;;-0.90;100.00;101773.44;2080931;28;20789;-71
2022/12/19 01:10:57;;;;;;;34.75;18.13;;;;;;;-0.89;100.00;101769.09;2079909;28;20801;-71
2022/12/19 01:13:26;;;;;;;31.58;17.38;;;;;;;-0.90;100.00;101765.53;2071949;28;20773;-71
2022/12/19 01:14:27;;;;;;;31.85;15.80;;;;;;;-0.88;100.00;101757.72;2066917;28;26818;-71
2022/12/19 01:15:29;;;;;;;34.05;17.17;;;;;;;-0.87;100.00;101765.66;2063267;28;39060;-71
2022/12/19 01:16:33;;;;;;;31.88;16.65;;;;;;;-0.89;100.00;101759.47;2071748;28;29690;-71
2022/12/19 01:17:35;;;;;;;35.75;18.58;;;;;;;-0.88;100.00;101763.88;2080641;28;36762;-71
2022/12/19 01:18:38;;;;;;;34.72;18.58;;;;;;;-0.87;100.00;101770.91;2080506;28;33231;-70
2022/12/19 01:19:40;;;;;;;35.53;18.38;;;;;;;-0.87;100.00;101768.28;2080614;28;27519;-73
2022/12/19 01:20:47;;;;;;;35.17;18.73;;;;;;;-0.88;100.00;101763.88;2080575;28;41260;-70
2022/12/19 01:21:49;;;;;;;34.53;18.25;;;;;;;-0.88;100.00;101766.53;2080706;28;20125;-71
2022/12/19 01:22:52;;;;;;;38.42;19.73;;;;;;;-0.87;100.00;101759.53;2079970;28;21026;-70
2022/12/19 01:23:53;;;;;;;35.38;18.13;;;;;;;-0.87;100.00;101759.53;2071536;28;31475;-70
2022/12/19 01:24:56;;;;;;;34.22;18.45;;;;;;;-0.88;100.00;101757.72;2072280;28;20050;-71
2022/12/19 01:25:58;;;;;;;34.83;18.73;;;;;;;-0.87;100.00;101756.91;2071554;28;20042;-71
2022/12/19 01:27:00;;;;;;;36.33;17.85;;;;;;;-0.88;100.00;101753.38;2072340;28;20050;-71
2022/12/19 01:28:03;;;;;;;32.67;17.73;;;;;;;-0.87;100.00;101749.88;2079916;28;32118;-71
2022/12/19 01:29:06;;;;;;;37.33;18.55;;;;;;;-0.87;100.00;101749.00;2080967;28;20026;-71
2022/12/19 01:30:08;;;;;;;36.35;19.23;;;;;;;-0.87;100.00;101738.50;2063623;28;20805;-71
2022/12/19 01:31:11;;;;;;;35.50;19.73;;;;;;;-0.86;100.00;101746.44;2064697;28;20039;-72
2022/12/19 01:32:12;;;;;;;35.53;18.65;;;;;;;-0.86;100.00;101746.44;2080191;28;31198;-71
2022/12/19 01:33:16;;;;;;;36.17;19.17;;;;;;;-0.85;100.00;101737.69;2081042;28;20042;-72
2022/12/19 01:34:18;;;;;;;35.88;18.17;;;;;;;-0.85;100.00;101737.69;2071344;28;38449;-72
2022/12/19 01:35:19;;;;;;;35.10;18.67;;;;;;;-0.84;100.00;101744.75;2071770;28;35177;-72
2022/12/19 01:36:22;;;;;;;34.58;18.75;;;;;;;-0.81;100.00;101744.88;2071782;28;20850;-71
2022/12/19 01:37:26;;;;;;;37.92;19.75;;;;;;;-0.80;100.00;101744.03;2072013;28;33818;-71
2022/12/19 01:38:31;;;;;;;36.83;18.52;;;;;;;-0.80;100.00;101738.75;2072274;28;20081;-71
2022/12/19 01:39:37;;;;;;;36.15;19.05;;;;;;;-0.79;100.00;101737.03;2065267;28;20035;-71
2022/12/19 01:40:38;;;;;;;34.92;19.15;;;;;;;-0.79;100.00;101742.28;2071692;28;32085;-71
2022/12/19 01:41:40;;;;;;;35.13;19.52;;;;;;;-0.79;100.00;101740.56;2079576;28;34916;-70
2022/12/19 01:42:42;;;;;;;36.10;19.45;;;;;;;-0.80;100.00;101738.75;2079812;28;34411;-72
2022/12/19 01:44:04;;;;;;;34.90;18.95;;;;;;;-0.79;100.00;101737.03;2079813;28;20042;-73
2022/12/19 01:45:08;;;;;;;38.50;19.25;;;;;;;-0.78;100.00;101739.72;2070128;28;30149;-71
2022/12/19 01:46:14;;;;;;;39.35;21.15;;;;;;;-0.77;100.00;101735.38;2064507;28;20038;-73
2022/12/19 01:47:16;;;;;;;36.30;20.08;;;;;;;-0.78;100.00;101734.44;2063102;28;35278;-72
2022/12/19 01:48:24;;;;;;;38.97;20.35;;;;;;;-0.75;100.00;101727.50;2071265;28;42082;-72
2022/12/19 01:49:31;;;;;;;33.65;18.75;;;;;;;-0.74;100.00;101721.41;2071378;28;31563;-73
2022/12/19 01:50:45;;;;;;;41.20;19.70;;;;;;;-0.74;100.00;101719.69;2065126;28;20189;-72
2022/12/19 01:52:02;;;;;;;39.67;20.23;;;;;;;-0.75;100.00;101728.41;2066866;28;35419;-72
2022/12/19 01:53:08;;;;;;;38.20;18.88;;;;;;;-0.75;100.00;101723.16;2067302;28;20050;-72
2022/12/19 01:54:18;;;;;;;36.80;18.55;;;;;;;-0.73;100.00;101723.22;2073518;28;21637;-72
2022/12/19 01:55:20;;;;;;;;;;;;;;;-0.74;100.00;101713.53;2071484;28;36783;-72
2022/12/19 01:56:31;;;;;;;33.92;18.08;;;;;;;-0.74;100.00;101708.28;2065123;28;19922;-72
2022/12/19 01:57:37;;;;;;;38.72;19.27;;;;;;;-0.73;100.00;101710.06;2056242;28;20051;-72
2022/12/19 01:58:45;;;;;;;38.10;19.45;;;;;;;-0.73;100.00;101715.34;2063846;28;34243;-72
2022/12/19 01:59:58;;;;;;;37.83;19.65;;;;;;;-0.73;100.00;101710.06;2057651;28;20928;-72
2022/12/19 02:01:00;;;;;;;36.80;19.13;;;;;;;-0.73;100.00;101707.44;2064765;28;26994;-72
2022/12/19 02:02:35;;;;;;;37.50;18.10;;;;;;;-0.72;100.00;101696.97;2071504;28;27562;-74
2022/12/19 02:03:38;;;;;;;35.72;18.30;;;;;;;-0.70;100.00;101689.13;2064001;28;20050;-72
2022/12/19 02:04:45;;;;;;;40.47;19.75;;;;;;;-0.70;100.00;101700.56;2060455;28;20149;-74
2022/12/19 02:06:13;;;;;;;39.47;20.27;;;;;;;-0.71;100.00;101704.03;2064358;28;27798;-72
2022/12/19 02:07:31;;;;;;;34.83;17.85;;;;;;;-0.72;100.00;101699.59;2071595;28;20046;-73
2022/12/19 02:08:34;;;;;;;36.17;18.92;;;;;;;-0.71;100.00;101690.00;2062739;28;29020;-72
2022/12/19 02:09:38;;;;;;;36.95;19.58;;;;;;;-0.70;100.00;101702.28;2064353;28;26412;-71
2022/12/19 02:10:40;;;;;;;39.17;19.10;;;;;;;-0.69;100.00;101704.06;2063065;28;31551;-72
2022/12/19 02:11:42;;;;;;;34.53;18.13;;;;;;;-0.68;100.00;101700.59;2064164;28;20185;-72
2022/12/19 02:12:47;;;;;;;39.90;19.85;;;;;;;-0.68;100.00;101705.84;2063362;28;20047;-73
2022/12/19 02:13:49;;;;;;;35.65;19.30;;;;;;;-0.68;100.00;101692.69;2055348;28;30157;-72
2022/12/19 02:14:53;;;;;;;38.03;19.52;;;;;;;-0.68;100.00;101687.44;2056197;28;20031;-72
2022/12/19 02:16:20;;;;;;;37.70;20.25;;;;;;;-0.68;100.00;101684.81;2072111;28;20868;-71
2022/12/19 02:17:39;;;;;;;37.00;18.80;;;;;;;-0.69;100.00;101688.31;2071934;28;20943;-72
2022/12/19 02:19:18;;;;;;;42.42;20.83;;;;;;;-0.69;100.00;101686.56;2073872;28;20045;-73
2022/12/19 02:20:33;;;;;;;35.50;17.50;;;;;;;-0.67;100.00;101683.97;2062404;28;20046;-73
2022/12/19 02:22:07;;;;;;;38.78;18.98;;;;;;;-0.67;100.00;101679.59;2060503;28;20885;-74
2022/12/19 02:23:59;;;;;;;34.88;18.50;;;;;;;-0.67;100.00;101673.47;2063408;28;20181;-72
2022/12/19 02:25:03;;;;;;;;;;;;;;;-0.66;100.00;101672.63;2054321;28;20044;-72
2022/12/19 02:26:56;;;;;;;36.80;17.80;;;;;;;-0.66;100.00;101672.63;2056389;28;19971;-73
2022/12/19 02:28:42;;;;;;;38.25;17.50;;;;;;;-0.65;100.00;101663.88;2064880;28;20047;-73
2022/12/19 02:30:31;;;;;;;32.83;17.38;;;;;;;-0.65;100.00;101661.25;2060683;28;20057;-73
2022/12/19 02:31:42;;;;;;;38.63;19.02;;;;;;;-0.65;100.00;101667.41;2034942;28;20060;-73
2022/12/19 02:33:20;;;;;;;37.63;19.90;;;;;;;-0.65;100.00;101670.03;2056538;28;20047;-73
2022/12/19 02:35:20;;;;;;;37.90;19.50;;;;;;;-0.64;100.00;101666.56;2068813;28;20049;-72
2022/12/19 02:36:39;;;;;;;40.00;19.40;;;;;;;-0.62;100.00;101671.91;2079769;28;20125;-73
2022/12/19 02:38:06;;;;;;;37.10;18.10;;;;;;;-0.61;100.00;101681.56;2071390;28;20325;-72
2022/12/19 02:39:31;;;;;;;37.47;18.13;;;;;;;-0.60;100.00;101681.63;2066202;28;21149;-73
2022/12/19 02:40:49;;;;;;;43.22;20.30;;;;;;;-0.59;100.00;101674.63;2067279;28;20054;-73
2022/12/19 02:41:57;;;;;;;40.40;18.55;;;;;;;-0.59;100.00;101685.16;2056812;28;20706;-73
2022/12/19 02:43:02;;;;;;;40.83;19.98;;;;;;;-0.58;100.00;101679.94;2058069;28;20049;-73
2022/12/19 02:44:04;;;;;;;38.22;19.17;;;;;;;-0.56;100.00;101677.34;2055687;28;20043;-72
2022/12/19 02:45:11;;;;;;;38.03;19.85;;;;;;;-0.52;100.00;101666.13;2064183;28;20990;-73
2022/12/19 02:46:15;;;;;;;39.38;20.15;;;;;;;-0.49;100.00;101668.81;2063207;28;20055;-73
2022/12/19 02:47:20;;;;;;;38.58;19.77;;;;;;;-0.47;100.00;101667.13;2055881;28;20834;-73
2022/12/19 02:48:23;;;;;;;39.25;19.75;;;;;;;-0.46;100.00;101665.44;2063687;28;20049;-74
2022/12/19 02:49:28;;;;;;;39.15;20.20;;;;;;;-0.46;100.00;101652.28;2071301;28;20424;-73
2022/12/19 02:50:43;;;;;;;37.70;18.98;;;;;;;-0.45;100.00;101654.97;2072608;28;20114;-73
2022/12/19 02:51:45;;;;;;;36.75;18.75;;;;;;;-0.44;100.00;101646.22;2079818;28;20042;-73
2022/12/19 02:52:49;;;;;;;36.72;19.77;;;;;;;-0.44;100.00;101643.56;2079117;28;20875;-74
2022/12/19 02:53:51;;;;;;;33.33;18.52;;;;;;;-0.44;100.00;101633.06;2078107;28;33698;-74
2022/12/19 02:54:57;;;;;;;35.25;18.48;;;;;;;-0.42;100.00;101636.63;2071722;28;20152;-75
2022/12/19 02:56:06;;;;;;;39.33;20.15;;;;;;;-0.39;100.00;101634.09;2063604;28;20157;-73
2022/12/19 02:57:32;;;;;;;35.90;18.55;;;;;;;-0.38;100.00;101635.00;2065127;28;20043;-74
2022/12/19 02:59:13;;;;;;;33.60;17.65;;;;;;;-0.37;100.00;101628.00;2075190;28;21004;-73
2022/12/19 03:00:20;;;;;;;38.92;17.80;;;;;;;-0.32;100.00;101626.41;2073289;28;20038;-74
2022/12/19 03:01:39;;;;;;;38.40;19.48;;;;;;;-0.32;100.00;101629.94;2056043;28;20822;-74
2022/12/19 03:02:52;;;;;;;35.70;17.98;;;;;;;-0.32;100.00;101629.03;2059839;28;20031;-74
2022/12/19 03:04:19;;;;;;;37.13;18.90;;;;;;;-0.30;100.00;101630.88;2073794;28;20078;-75
2022/12/19 03:05:32;;;;;;;37.40;18.25;;;;;;;-0.29;100.00;101630.03;2063407;28;20050;-73
2022/12/19 03:07:19;;;;;;;36.92;18.10;;;;;;;-0.28;100.00;101625.69;2059988;28;20093;-74
2022/12/19 03:08:51;;;;;;;39.85;18.80;;;;;;;-0.26;100.00;101627.50;2061278;28;20045;-74
2022/12/19 03:10:23;;;;;;;35.72;17.52;;;;;;;-0.23;100.00;101624.97;2066843;28;20046;-74
2022/12/19 03:11:31;;;;;;;34.83;17.90;;;;;;;-0.19;100.00;101610.19;2066808;28;20927;-74
2022/12/19 03:13:01;;;;;;;32.97;17.17;;;;;;;-0.17;100.00;101621.66;2070816;28;25715;-74
2022/12/19 03:14:11;;;;;;;35.65;18.38;;;;;;;-0.16;100.00;101617.25;2068116;28;20923;-74
2022/12/19 03:15:17;;;;;;;36.22;17.88;;;;;;;-0.17;100.00;101619.00;2064427;28;20049;-75
2022/12/19 03:16:19;;;;;;;34.47;18.60;;;;;;;-0.16;100.00;101619.91;2063008;28;36843;-73
2022/12/19 03:17:21;;;;;;;39.30;19.42;;;;;;;-0.17;100.00;101605.84;2071258;28;22367;-73
2022/12/19 03:18:23;;;;;;;35.53;18.80;;;;;;;-0.15;100.00;101614.69;2062962;28;20054;-74
2022/12/19 03:19:25;;;;;;;36.53;18.42;;;;;;;-0.14;100.00;101613.84;2063130;28;39392;-73
2022/12/19 03:20:53;;;;;;;32.63;17.58;;;;;;;-0.10;100.00;101610.47;2079324;28;41728;-73
2022/12/19 03:21:55;;;;;;;33.05;17.52;;;;;;;-0.10;100.00;101607.84;2070535;28;39092;-73
2022/12/19 03:22:59;;;;;;;32.28;17.65;;;;;;;-0.08;100.00;101614.03;2070080;28;42952;-73
2022/12/19 03:24:03;;;;;;;36.80;17.55;;;;;;;-0.04;100.00;101615.03;2071271;28;25473;-73
2022/12/19 03:25:05;;;;;;;36.63;18.52;;;;;;;-0.03;100.00;101612.44;2070431;28;40232;-73
2022/12/19 03:26:14;;;;;;;35.03;18.08;;;;;;;-0.02;100.00;101615.97;2071468;28;37009;-73
2022/12/19 03:27:29;;;;;;;34.92;18.30;;;;;;;0.00;100.00;101611.66;2079460;28;35907;-73
2022/12/19 03:29:00;;;;;;;36.22;19.02;;;;;;;0.00;100.00;101606.41;2070957;28;38177;-73
2022/12/19 03:30:10;;;;;;;34.90;17.33;;;;;;;0.05;100.00;101593.34;2068359;28;20046;-73
2022/12/19 03:31:15;;;;;;;35.35;16.50;;;;;;;0.02;100.00;101591.53;2063575;28;44510;-73
2022/12/19 03:32:19;;;;;;;34.63;17.92;;;;;;;0.04;100.00;101584.56;2063921;28;40862;-73
2022/12/19 03:33:23;;;;;;;37.92;19.10;;;;;;;0.07;100.00;101591.66;2071039;28;38184;-72
2022/12/19 03:34:54;;;;;;;37.08;18.77;;;;;;;0.08;100.00;101582.94;2070428;28;38554;-73
2022/12/19 03:36:00;;;;;;;;;;;;;;;0.08;100.00;101588.19;2067171;28;38645;-73
2022/12/19 03:37:06;;;;;;;33.00;16.02;;;;;;;0.11;100.00;101583.91;2070457;28;36936;-73
2022/12/19 03:38:11;;;;;;;33.10;16.92;;;;;;;0.11;100.00;101572.50;2070878;28;40849;-73
2022/12/19 03:39:15;;;;;;;33.90;18.05;;;;;;;0.14;100.00;101569.94;2062408;28;38020;-73
2022/12/19 03:40:23;;;;;;;34.72;18.10;;;;;;;0.14;100.00;101576.13;2055308;28;37823;-73
2022/12/19 03:43:08;;;;;;;32.85;16.67;;;;;;;0.14;100.00;101562.03;2062206;28;39944;-73
2022/12/19 03:44:14;;;;;;;35.72;17.38;;;;;;;0.17;100.00;101564.78;2070599;28;39413;-72
2022/12/19 03:45:25;;;;;;;34.55;17.83;;;;;;;0.15;100.00;101564.72;2066198;28;40567;-73
2022/12/19 03:46:27;;;;;;;33.15;17.33;;;;;;;0.19;100.00;101573.59;2065090;28;20131;-73
2022/12/19 03:47:52;;;;;;;31.05;17.52;;;;;;;0.22;100.00;101567.56;2063231;28;37983;-73
2022/12/19 03:48:54;;;;;;;32.92;17.08;;;;;;;0.23;100.00;101570.19;2065916;28;41309;-73
2022/12/19 03:49:56;;;;;;;34.58;17.23;;;;;;;0.23;100.00;101582.50;2069643;28;43741;-73
2022/12/19 03:51:31;;;;;;;35.08;17.73;;;;;;;0.22;100.00;101571.06;2062801;28;40002;-72
2022/12/19 03:53:08;;;;;;;29.88;16.88;;;;;;;0.23;100.00;101570.19;2067173;28;38196;-73
2022/12/19 03:54:50;;;;;;;34.78;17.58;;;;;;;0.26;100.00;101564.16;2070793;28;43740;-73
2022/12/19 03:56:07;;;;;;;33.95;17.20;;;;;;;0.25;100.00;101560.63;2029600;29;38597;-73
2022/12/19 03:57:32;;;;;;;33.35;16.73;;;;;;;0.25;100.00;101565.91;2071052;28;40365;-73
2022/12/19 03:58:41;;;;;;;35.10;17.08;;;;;;;0.29;100.00;101557.22;2063015;28;20043;-72
2022/12/19 03:59:53;;;;;;;35.38;17.63;;;;;;;0.34;100.00;101558.25;2066000;28;41716;-73
2022/12/19 04:00:56;;;;;;;33.53;16.90;;;;;;;0.37;100.00;101553.06;2062365;28;40294;-72
2022/12/19 04:02:00;;;;;;;35.20;17.90;;;;;;;0.38;100.00;101546.97;2055171;28;41232;-73
2022/12/19 04:03:04;;;;;;;35.63;18.05;;;;;;;0.37;100.00;101552.19;2051577;28;20091;-72
2022/12/19 04:04:10;;;;;;;37.30;18.65;;;;;;;0.37;100.00;101545.16;2063717;28;20039;-72
2022/12/19 04:05:19;;;;;;;39.15;18.10;;;;;;;0.37;100.00;101550.44;2072933;28;41401;-72
2022/12/19 04:06:21;;;;;;;39.00;19.25;;;;;;;0.38;100.00;101543.44;2072921;28;20046;-72
2022/12/19 04:07:24;;;;;;;37.50;18.27;;;;;;;0.38;100.00;101541.69;2064472;28;41941;-72
2022/12/19 04:08:29;;;;;;;38.67;18.88;;;;;;;0.36;100.00;101547.78;2064838;28;20802;-72
2022/12/19 04:09:32;;;;;;;39.20;19.33;;;;;;;0.36;100.00;101560.94;2073038;28;20986;-72
2022/12/19 04:10:48;;;;;;;40.65;20.00;;;;;;;0.37;100.00;101552.19;2071617;28;41209;-72
2022/12/19 04:11:57;;;;;;;39.42;18.85;;;;;;;0.35;100.00;101560.03;2066369;28;35751;-72
2022/12/19 04:13:10;;;;;;;37.47;19.05;;;;;;;0.35;100.00;101557.41;2074567;28;39335;-71
2022/12/19 04:14:24;;;;;;;36.35;18.70;;;;;;;0.38;100.00;101561.88;2072204;28;35175;-72
2022/12/19 04:15:49;;;;;;;41.05;19.77;;;;;;;0.38;100.00;101557.50;2066909;28;39579;-71
2022/12/19 04:17:12;;;;;;;37.85;18.50;;;;;;;0.39;100.00;101547.84;2068465;28;40356;-71
2022/12/19 04:18:17;;;;;;;41.83;19.55;;;;;;;0.39;100.00;101553.09;2069161;28;37366;-71
2022/12/19 04:19:52;;;;;;;38.40;18.50;;;;;;;0.41;100.00;101550.53;2075345;28;20053;-71
2022/12/19 04:21:03;;;;;;;39.17;18.30;;;;;;;0.44;100.00;101542.72;2071418;28;40142;-71
2022/12/19 04:22:15;;;;;;;41.10;19.60;;;;;;;0.43;100.00;101538.28;2077900;28;39896;-70
2022/12/19 04:23:23;;;;;;;41.88;19.90;;;;;;;0.40;100.00;101533.84;2071593;28;39213;-69
2022/12/19 04:24:33;;;;;;;36.30;19.02;;;;;;;0.38;100.00;101531.16;2066633;28;20074;-70
2022/12/19 04:25:39;;;;;;;37.22;18.75;;;;;;;0.40;100.00;101525.94;2065475;28;44123;-70
2022/12/19 04:26:45;;;;;;;41.78;20.65;;;;;;;0.41;100.00;101529.44;2065760;28;39895;-69
2022/12/19 04:27:53;;;;;;;44.00;20.70;;;;;;;0.40;100.00;101517.16;2073192;28;38152;-69
2022/12/19 04:29:01;;;;;;;37.65;19.13;;;;;;;0.37;100.00;101521.44;2071531;28;37480;-69
2022/12/19 04:30:04;;;;;;;40.53;20.42;;;;;;;0.38;100.00;101519.72;2065353;28;32213;-69
2022/12/19 04:31:10;;;;;;;40.72;19.85;;;;;;;0.39;100.00;101524.13;2073050;28;39898;-68
2022/12/19 04:32:12;;;;;;;45.38;21.17;;;;;;;0.37;100.00;101515.31;2071855;28;39935;-67
2022/12/19 04:33:14;;;;;;;39.15;20.17;;;;;;;0.35;100.00;101509.97;2064839;28;20801;-68
2022/12/19 04:34:19;;;;;;;42.10;21.15;;;;;;;0.35;100.00;101511.75;2072073;28;36599;-68
2022/12/19 04:35:21;;;;;;;38.90;20.15;;;;;;;0.37;100.00;101513.53;2071629;28;38234;-68
2022/12/19 04:36:25;;;;;;;44.35;20.65;;;;;;;0.36;100.00;101503.88;2063859;28;38272;-67
2022/12/19 04:37:28;;;;;;;42.90;21.55;;;;;;;0.36;100.00;101516.16;2072153;28;40255;-67
2022/12/19 04:38:30;;;;;;;44.50;20.75;;;;;;;0.36;100.00;101501.25;2063024;28;42707;-66
2022/12/19 04:39:32;;;;;;;41.33;20.73;;;;;;;0.35;100.00;101509.09;2064196;28;25183;-66
2022/12/19 04:40:34;;;;;;;43.15;21.60;;;;;;;0.34;100.00;101505.59;2079865;28;38386;-66
2022/12/19 04:41:41;;;;;;;45.00;21.83;;;;;;;0.36;100.00;101495.09;2080210;28;42914;-65
2022/12/19 04:42:44;;;;;;;40.97;20.58;;;;;;;0.40;100.00;101496.06;2078975;28;33310;-66
2022/12/19 04:43:48;;;;;;;42.20;21.92;;;;;;;0.38;100.00;101503.94;2072312;28;39936;-65
2022/12/19 04:44:49;;;;;;;46.88;22.45;;;;;;;0.36;100.00;101501.25;2071615;28;37003;-66
2022/12/19 04:45:51;;;;;;;47.72;22.48;;;;;;;0.37;100.00;101497.75;2072236;28;40992;-65
2022/12/19 04:46:57;;;;;;;44.08;21.67;;;;;;;0.37;100.00;101503.00;2072204;28;41111;-65
2022/12/19 04:47:59;;;;;;;47.70;21.17;;;;;;;0.39;100.00;101492.53;2072074;28;41160;-65
2022/12/19 04:49:01;;;;;;;46.40;22.23;;;;;;;0.42;100.00;101494.38;2063418;28;36991;-66
2022/12/19 04:50:03;;;;;;;47.28;23.65;;;;;;;0.41;100.00;101493.47;2063284;28;43379;-66
2022/12/19 04:51:05;;;;;;;49.92;24.25;;;;;;;0.37;100.00;101489.84;2072364;28;36978;-66
2022/12/19 04:52:07;;;;;;;49.22;22.00;;;;;;;0.42;100.00;101489.09;2063448;28;25725;-66
2022/12/19 04:53:09;;;;;;;48.80;23.27;;;;;;;0.40;100.00;101493.44;2063746;28;40252;-66
2022/12/19 04:54:11;;;;;;;48.80;22.10;;;;;;;0.40;100.00;101485.53;2072756;28;20038;-66
2022/12/19 04:55:13;;;;;;;52.85;23.65;;;;;;;0.40;100.00;101488.19;2071896;28;40591;-64
2022/12/19 04:56:15;;;;;;;51.40;23.63;;;;;;;0.41;100.00;101488.19;2072386;28;39512;-66
2022/12/19 04:57:18;;;;;;;44.55;22.38;;;;;;;0.37;100.00;101489.84;2072323;28;39993;-66
2022/12/19 04:58:20;;;;;;;44.67;21.42;;;;;;;0.38;100.00;101488.13;2072078;28;41124;-67
2022/12/19 04:59:22;;;;;;;46.55;22.73;;;;;;;0.38;100.00;101480.22;2072952;28;20859;-66
2022/12/19 05:00:24;;;;;;;47.38;22.25;;;;;;;0.38;100.00;101481.09;2072082;28;39385;-67
2022/12/19 05:01:26;;;;;;;44.55;21.45;;;;;;;0.38;100.00;101472.31;2072117;28;39616;-67
2022/12/19 05:02:28;;;;;;;48.03;23.90;;;;;;;0.40;100.00;101469.72;2072125;28;37807;-67
2022/12/19 05:03:30;;;;;;;45.67;21.92;;;;;;;0.40;100.00;101467.97;2072542;28;39119;-66
2022/12/19 05:04:33;;;;;;;48.00;21.25;;;;;;;0.42;100.00;101460.13;2072159;28;37369;-67
2022/12/19 05:05:35;;;;;;;46.30;23.58;;;;;;;0.41;100.00;101458.31;2071800;28;36660;-66
2022/12/19 05:06:37;;;;;;;51.30;23.40;;;;;;;0.40;100.00;101456.56;2072298;28;38294;-67
2022/12/19 05:07:39;;;;;;;52.67;23.10;;;;;;;0.41;100.00;101455.69;2062961;28;37136;-67
2022/12/19 05:08:44;;;;;;;47.42;23.00;;;;;;;0.42;100.00;101460.13;2063513;28;40401;-67
2022/12/19 05:09:45;;;;;;;52.05;23.17;;;;;;;0.42;100.00;101453.09;2063057;28;38134;-67
2022/12/19 05:10:47;;;;;;;52.13;23.95;;;;;;;0.46;100.00;101448.81;2063579;28;40507;-67